HEAO2: North Fork Red, OK

Data processed at Fri Mar 09 2018 23:11


All information presented herein is the property of the government of the United States of America and may be revised or deleted at any time without prior notice.
Dissemination of this information without the expressed written consent of the Public Affairs Office, Tulsa District U.S. Army Corps of Engineers is strictly prohibited.
These data are gathered electronically and, as presented, have not undergone any form of quality control. These data are not guaranteed to be valid or correct.
Go to home page.
Go to station list.

Upstream stations:

Downstream station:
Previous Day
Next Day
Current Day
    
SHEF ID:       HEAO2     North Fork Red River near Headri
STATION TYPE:  

               PRECIP     STAGE  RIV-FLOW   VOLTAGE
                   in        ft       cfs      volt
              Ccp-Rev   Ccp-Rev   Ccp-Rev   Ccp-Rev
(US/Central)
03/07 00:00      0.00      6.81       133     12.85
03/07 01:00      0.00      6.81       133     12.84
03/07 02:00      0.00      6.84       139     12.81
03/07 03:00      0.00      6.81       133      ----
03/07 04:00      0.00      6.84       139     12.76
03/07 05:00      0.00      6.83       137     12.73
03/07 06:00      0.00      6.85       141     12.71
03/07 07:00      0.00      6.84       139     12.72
03/07 08:00      0.00      6.84       139     14.19
03/07 09:00      0.00      6.83       137     14.73
03/07 10:00      0.00      6.84       139     14.67
03/07 11:00      0.00      6.85       141     14.20
03/07 12:00      0.00      6.83       137     14.12
03/07 13:00      0.00      6.85       141     14.03
03/07 14:00      0.00      6.84       139     13.98
03/07 15:00      0.00      6.82       135     13.94
03/07 16:00      0.00      6.79       129     13.97
03/07 17:00      0.00      6.77       125     14.00
03/07 18:00      0.00      6.76       123     13.80
03/07 19:00      0.00      6.73       116     13.23
03/07 20:00      0.00      6.72       114     12.99
03/07 21:00      0.00      6.70       109     12.91
03/07 22:00      0.00      6.68       105     12.87
03/07 23:00      0.00      6.67       102     12.85